Friday, December 19, 2014, 9:12 PM EST

KRDG, Reading Regional Airport

Location: Reading, PA, United States Lat: 40.367
Local Time: 9:12 PM EST ( 2:12 GMT) Lon: -75.967
Time Zone: US/Eastern Elev: 344 ft

Show me the last for .
Show Decoded

2014-12-19 20:54 METAR KRDG 200154Z 33005KT 10SM OVC037 01/M06 A3019 RMK AO2 SLP231 T00111061 =
2014-12-19 19:54 METAR KRDG 200054Z 33010KT 10SM OVC035 01/M07 A3017 RMK AO2 SLP224 T00111067 =
2014-12-19 18:54 METAR KRDG 192354Z 35011KT 10SM OVC037 02/M06 A3016 RMK AO2 SLP222 T00171061
                 10056 20011 51022 =
2014-12-19 17:54 METAR KRDG 192254Z 33011KT 10SM BKN042 02/M06 A3015 RMK AO2 SLP219 T00171061 =
2014-12-19 16:54 METAR KRDG 192154Z 31009KT 10SM CLR 01/M07 A3012 RMK AO2 SLP207 T00111067 =
2014-12-19 15:54 METAR KRDG 192054Z 34012KT 10SM CLR 03/M07 A3010 RMK AO2 SLP199 T00331067 53007
                 =
2014-12-19 14:54 METAR KRDG 191954Z 31009KT 10SM SCT042 04/M06 A3008 RMK AO2 WSHFT 1903 SLP194
                 T00441061 =
2014-12-19 14:23 METAR KRDG 191923Z 29013KT 10SM BKN042 05/M06 A3008 RMK AO2 WSHFT 1903 T00501061
                 =
2014-12-19 13:54 METAR KRDG 191854Z 31009KT 10SM BKN042 05/M06 A3007 RMK AO2 SLP191 T00501056 =
2014-12-19 12:54 METAR KRDG 191754Z 33009KT 10SM SCT039 04/M06 A3008 RMK AO2 SLP192 T00391061
                 10050 20017 56007 =
2014-12-19 11:54 METAR KRDG 191654Z 32013KT 10SM OVC037 04/M06 A3007 RMK AO2 SLP191 T00441056 =
2014-12-19 10:54 METAR KRDG 191554Z 31013KT 10SM OVC035 03/M05 A3009 RMK AO2 SLP196 T00331050 =
2014-12-19 09:54 METAR KRDG 191454Z 32009KT 10SM OVC034 03/M05 A3010 RMK AO2 SLP200 T00281050
                 53016 =
2014-12-19 08:54 METAR KRDG 191354Z 30013KT 10SM OVC033 02/M04 A3009 RMK AO2 SLP196 T00221044 =
2014-12-19 07:54 METAR KRDG 191254Z 30008KT 10SM OVC034 02/M04 A3006 RMK AO2 SLP186 T00221044 =
2014-12-19 06:54 METAR KRDG 191154Z 29007KT 10SM OVC035 02/M04 A3005 RMK AO2 SLP184 T00171039
                 10017 20017 53008 =
2014-12-19 05:54 METAR KRDG 191054Z 28006KT 10SM OVC032 02/M04 A3004 RMK AO2 SLP179 T00171044 =
2014-12-19 05:06 METAR KRDG 191006Z AUTO 28008KT 10SM OVC034 02/M04 A3003 RMK AO2 T00171044 =
2014-12-19 04:54 METAR KRDG 190954Z AUTO 28006KT 10SM BKN029 OVC034 02/M04 A3003 RMK AO2 SLP176
                 T00171044 =
2014-12-19 03:54 METAR KRDG 190854Z AUTO 29008KT 10SM OVC033 02/M04 A3003 RMK AO2 SLP177
                 T00171044 50003 =
2014-12-19 02:54 METAR KRDG 190754Z AUTO 28011G17KT 10SM OVC030 02/M04 A3003 RMK AO2 SLP178
                 T00171044 =
2014-12-19 01:54 METAR KRDG 190654Z AUTO 29010KT 10SM OVC031 02/M04 A3002 RMK AO2 SLP175
                 T00171044 =
2014-12-19 00:54 METAR KRDG 190554Z AUTO 28009KT 10SM OVC035 02/M04 A3002 RMK AO2 SLP174
                 T00171044 10022 20017 58003 =
2014-12-18 23:54 METAR KRDG 190454Z AUTO 28007KT 10SM OVC038 02/M04 A3003 RMK AO2 SLP178
                 T00171044 400281006 =
2014-12-18 22:54 METAR KRDG 190354Z AUTO 29007KT 10SM OVC032 02/M04 A3004 =
2014-12-18 21:54 METAR KRDG 190254Z AUTO 29012KT 10SM OVC035 02/M04 A3003 RMK AO2 SLP178
                 T00221039 50000 =

Support USWX by starting your Amazon purchase here.